createdAt,value
2018-11-27T00:03:00.993Z,4.50
2018-11-27T00:08:04.885Z,4.40
2018-11-27T00:13:10.425Z,4.90
2018-11-27T00:18:14.006Z,5.03
2018-11-27T00:23:18.014Z,4.53
2018-11-27T00:28:21.781Z,4.73
2018-11-27T00:33:25.375Z,4.67
2018-11-27T00:38:29.048Z,5.00
2018-11-27T00:43:34.528Z,5.43
2018-11-27T00:48:39.074Z,5.07
2018-11-27T00:53:43.106Z,5.23
2018-11-27T00:58:47.024Z,5.97
2018-11-27T01:03:51.094Z,6.93
2018-11-27T01:08:55.159Z,6.43
2018-11-27T01:13:58.725Z,7.10
2018-11-27T01:19:02.645Z,7.43
2018-11-27T01:24:06.581Z,7.00
2018-11-27T01:29:10.138Z,6.90
2018-11-27T01:34:13.694Z,7.33
2018-11-27T01:39:22.901Z,5.90
2018-11-27T01:44:26.444Z,6.17
2018-11-27T01:49:30.025Z,4.87
2018-11-27T01:54:33.976Z,5.67
2018-11-27T01:59:37.559Z,5.00
2018-11-27T02:04:42.068Z,5.50
2018-11-27T02:09:45.657Z,5.37
2018-11-27T02:14:49.213Z,5.50
2018-11-27T02:19:52.801Z,5.10
2018-11-27T02:24:56.994Z,5.17
2018-11-27T02:30:00.568Z,5.03
2018-11-27T02:35:04.456Z,5.27
2018-11-27T02:40:10.437Z,5.10
2018-11-27T02:45:15.514Z,5.33
2018-11-27T02:50:20.360Z,5.97
2018-11-27T02:55:25.112Z,6.53
2018-11-27T03:00:29.311Z,6.17
2018-11-27T03:05:37.675Z,5.10
2018-11-27T03:10:41.497Z,4.70
2018-11-27T03:15:46.198Z,5.03
2018-11-27T03:20:49.845Z,5.80
2018-11-27T03:25:53.413Z,5.20
2018-11-27T03:30:56.982Z,5.40
2018-11-27T03:36:03.254Z,5.27
2018-11-27T03:41:07.090Z,4.97
2018-11-27T03:46:11.286Z,5.23
2018-11-27T03:51:15.037Z,4.57
2018-11-27T03:56:18.570Z,4.63
2018-11-27T04:01:22.906Z,5.30
2018-11-27T04:06:26.476Z,4.97
2018-11-27T04:11:30.071Z,5.17
2018-11-27T04:16:34.855Z,6.00
2018-11-27T04:21:38.466Z,5.50
2018-11-27T04:26:42.574Z,5.70
2018-11-27T04:31:46.129Z,6.30
2018-11-27T04:36:49.725Z,6.33
2018-11-27T04:41:53.374Z,6.03
2018-11-27T04:46:57.226Z,5.27
2018-11-27T04:52:00.894Z,5.40
2018-11-27T04:57:04.558Z,5.33
2018-11-27T05:02:08.661Z,5.00
2018-11-27T05:07:12.536Z,5.60
2018-11-27T05:12:16.497Z,5.37
2018-11-27T05:17:20.090Z,5.40
2018-11-27T05:22:23.634Z,4.70
2018-11-27T05:27:27.577Z,4.40
2018-11-27T05:32:31.118Z,3.90
2018-11-27T05:37:34.674Z,4.67
2018-11-27T05:42:39.128Z,4.80
2018-11-27T05:47:43.785Z,4.70
2018-11-27T05:52:48.269Z,5.17
2018-11-27T05:57:53.555Z,4.83
2018-11-27T06:02:58.589Z,5.60
2018-11-27T06:08:02.120Z,5.17
2018-11-27T06:13:05.832Z,5.10
2018-11-27T06:18:09.380Z,5.23
2018-11-27T06:23:12.921Z,5.23
2018-11-27T06:28:16.707Z,5.47
2018-11-27T06:33:20.256Z,5.90
2018-11-27T06:38:27.365Z,5.60
2018-11-27T06:43:31.242Z,6.30
2018-11-27T06:48:35.173Z,6.00
2018-11-27T06:53:38.734Z,5.67
2018-11-27T06:58:42.641Z,5.87
2018-11-27T07:03:46.264Z,5.33
2018-11-27T07:08:49.820Z,4.23
2018-11-27T07:13:55.482Z,4.30
2018-11-27T07:18:59.445Z,3.83
2018-11-27T07:24:03.047Z,3.50
2018-11-27T07:29:07.554Z,3.67
2018-11-27T07:34:13.273Z,4.00
2018-11-27T07:39:16.856Z,4.03
2018-11-27T07:44:20.678Z,3.50
2018-11-27T07:49:26.186Z,3.30
2018-11-27T07:54:29.832Z,3.53
2018-11-27T07:59:34.220Z,3.43
2018-11-27T08:04:37.775Z,3.60
2018-11-27T08:09:43.700Z,3.40
2018-11-27T08:14:50.521Z,3.97
2018-11-27T08:19:54.063Z,3.70
2018-11-27T08:24:57.659Z,4.13
2018-11-27T08:30:01.342Z,4.97
2018-11-27T08:35:05.448Z,5.53
2018-11-27T08:40:10.587Z,5.70
2018-11-27T08:45:15.358Z,4.60
2018-11-27T08:50:20.582Z,5.50
2018-11-27T08:55:25.592Z,5.17
2018-11-27T09:00:29.268Z,4.93
2018-11-27T09:05:32.849Z,5.00
2018-11-27T09:10:36.801Z,5.07
2018-11-27T09:15:40.481Z,4.20
2018-11-27T09:20:45.834Z,4.87
2018-11-27T09:25:49.703Z,4.10
2018-11-27T09:30:53.498Z,4.23
2018-11-27T09:35:57.066Z,4.80
2018-11-27T09:41:00.704Z,4.13
2018-11-27T09:46:04.456Z,5.70
2018-11-27T09:51:08.066Z,5.70
2018-11-27T09:56:13.047Z,14.77
2018-11-27T10:01:21.530Z,6.27
2018-11-27T10:06:25.103Z,6.80
2018-11-27T10:11:28.760Z,5.77
2018-11-27T10:16:32.618Z,5.60
2018-11-27T10:21:36.615Z,6.17
2018-11-27T10:26:40.187Z,6.63
2018-11-27T10:31:44.289Z,5.63
2018-11-27T10:36:49.723Z,6.80
2018-11-27T10:41:53.373Z,6.37
2018-11-27T10:46:56.979Z,6.37
2018-11-27T10:52:00.633Z,6.70
2018-11-27T10:57:05.270Z,5.50
2018-11-27T11:02:14.062Z,6.00
2018-11-27T11:07:18.322Z,6.17
2018-11-27T11:12:21.864Z,5.83
2018-11-27T11:17:25.409Z,5.80
2018-11-27T11:22:28.995Z,5.73
2018-11-27T11:27:32.562Z,5.27
2018-11-27T11:32:37.345Z,5.00
2018-11-27T11:37:41.161Z,5.50
2018-11-27T11:42:44.826Z,4.80
2018-11-27T11:47:49.328Z,6.07
2018-11-27T11:53:00.967Z,5.60
2018-11-27T11:58:05.022Z,5.77
2018-11-27T12:08:27.244Z,5.77
2018-11-27T12:13:31.117Z,5.73
2018-11-27T12:18:34.737Z,7.67
2018-11-27T12:23:38.513Z,6.30
2018-11-27T12:28:42.005Z,5.60
2018-11-27T12:33:47.037Z,6.30
2018-11-27T12:38:51.091Z,6.20
2018-11-27T12:43:54.695Z,5.80
2018-11-27T12:48:58.297Z,5.83
2018-11-27T12:54:01.977Z,7.13
2018-11-27T12:59:05.874Z,5.73
2018-11-27T13:04:23.275Z,7.13
2018-11-27T13:09:26.808Z,6.93
2018-11-27T13:14:31.301Z,7.13
2018-11-27T13:19:35.255Z,6.70
2018-11-27T13:24:38.829Z,6.83
2018-11-27T13:29:42.404Z,7.90
2018-11-27T13:34:50.281Z,7.80
2018-11-27T13:39:49.607Z,8.30
2018-11-27T13:44:53.154Z,11.97
2018-11-27T13:49:57.070Z,9.03
2018-11-27T13:55:01.278Z,9.30
2018-11-27T14:00:06.439Z,11.67
2018-11-27T14:05:13.257Z,12.07
2018-11-27T14:10:16.871Z,10.93
2018-11-27T14:15:21.675Z,11.30
2018-11-27T14:20:25.300Z,10.20
2018-11-27T14:25:28.874Z,10.30
2018-11-27T14:30:32.449Z,9.80
2018-11-27T14:35:36.297Z,8.90
2018-11-27T14:40:40.621Z,9.70
2018-11-27T14:45:44.242Z,7.73
2018-11-27T14:50:48.661Z,8.90
2018-11-27T14:55:52.406Z,10.27
2018-11-27T15:00:55.958Z,8.90
2018-11-27T15:05:59.886Z,9.83
2018-11-27T15:11:03.486Z,9.43
2018-11-27T15:16:07.526Z,9.13
2018-11-27T15:21:11.230Z,9.37
2018-11-27T15:26:14.803Z,8.20
2018-11-27T15:31:18.346Z,8.00
2018-11-27T15:36:21.990Z,7.87
2018-11-27T15:41:26.124Z,7.10
2018-11-27T15:46:29.995Z,6.10
2018-11-27T15:51:33.616Z,6.53
2018-11-27T15:56:37.226Z,6.93
2018-11-27T16:01:40.827Z,6.37
2018-11-27T16:06:45.284Z,5.83
2018-11-27T16:11:48.862Z,8.63
2018-11-27T16:16:52.553Z,7.10
2018-11-27T16:21:56.137Z,7.40
2018-11-27T16:26:59.734Z,7.00
2018-11-27T16:32:03.462Z,7.23
2018-11-27T16:37:08.141Z,6.43
2018-11-27T16:42:12.403Z,6.37
2018-11-27T16:47:15.693Z,6.97
2018-11-27T16:52:19.286Z,6.53
2018-11-27T16:57:25.300Z,6.50
2018-11-27T17:02:29.263Z,7.00
2018-11-27T17:07:32.815Z,6.93
2018-11-27T17:12:36.431Z,6.60
2018-11-27T17:17:40.354Z,6.57
2018-11-27T17:22:43.953Z,12.57
2018-11-27T17:27:48.774Z,6.70
2018-11-27T17:32:53.241Z,6.73
2018-11-27T17:37:56.804Z,7.63
2018-11-27T17:43:00.422Z,6.63
2018-11-27T17:48:05.411Z,6.60
2018-11-27T17:53:09.001Z,6.97
2018-11-27T17:58:12.581Z,9.20
2018-11-27T18:03:16.168Z,8.70
2018-11-27T18:08:19.711Z,9.30
2018-11-27T18:13:23.658Z,10.17
2018-11-27T18:18:27.270Z,10.40
2018-11-27T18:23:30.845Z,10.33
2018-11-27T18:28:34.614Z,8.40
2018-11-27T18:33:38.217Z,8.67
2018-11-27T18:38:41.861Z,8.60
2018-11-27T18:43:45.454Z,12.83
2018-11-27T18:48:49.061Z,17.90
2018-11-27T18:53:54.922Z,8.97
2018-11-27T18:58:56.325Z,7.53
2018-11-27T19:04:01.329Z,8.83
2018-11-27T19:09:08.487Z,8.37
2018-11-27T19:14:12.060Z,9.73
2018-11-27T19:19:15.653Z,9.77
2018-11-27T19:24:19.247Z,7.80
2018-11-27T19:29:22.833Z,8.40
2018-11-27T19:34:26.435Z,8.37
2018-11-27T19:39:31.811Z,8.87
2018-11-27T19:44:35.466Z,8.87
2018-11-27T19:49:39.145Z,9.37
2018-11-27T19:54:42.814Z,9.50
2018-11-27T19:59:46.395Z,9.43
2018-11-27T20:04:49.960Z,8.93
2018-11-27T20:09:53.543Z,8.97
2018-11-27T20:14:57.205Z,38.10
2018-11-27T20:20:00.874Z,11.70
2018-11-27T20:25:04.759Z,9.97
2018-11-27T20:30:12.691Z,11.60
2018-11-27T20:35:16.588Z,10.60
2018-11-27T20:40:20.468Z,8.90
2018-11-27T20:45:25.930Z,11.43
2018-11-27T20:50:30.465Z,11.40
2018-11-27T20:55:34.595Z,11.53
2018-11-27T21:00:39.788Z,9.33
2018-11-27T21:05:44.852Z,10.07
2018-11-27T21:10:49.746Z,11.87
2018-11-27T21:15:53.561Z,15.30
2018-11-27T21:20:57.149Z,14.77
2018-11-27T21:26:07.486Z,10.93
2018-11-27T21:31:11.148Z,9.40
2018-11-27T21:36:14.725Z,9.23
2018-11-27T21:41:18.290Z,10.80
2018-11-27T21:46:21.853Z,13.20
2018-11-27T21:51:25.427Z,12.60
2018-11-27T21:56:31.063Z,10.47
2018-11-27T22:01:34.831Z,9.50
2018-11-27T22:06:38.450Z,9.20
2018-11-27T22:11:43.248Z,10.40
2018-11-27T22:16:47.031Z,10.30
2018-11-27T22:21:50.766Z,9.23
2018-11-27T22:26:55.449Z,8.93
2018-11-27T22:31:59.391Z,9.03
2018-11-27T22:37:03.766Z,10.50
2018-11-27T22:42:07.380Z,9.77
2018-11-27T22:47:11.338Z,9.60
2018-11-27T22:52:15.823Z,8.03
2018-11-27T22:57:19.951Z,9.10
2018-11-27T23:02:24.167Z,9.47
2018-11-27T23:07:37.541Z,9.17
2018-11-27T23:12:42.282Z,8.63
2018-11-27T23:17:46.023Z,9.33
2018-11-27T23:22:50.401Z,10.13
2018-11-27T23:27:54.950Z,10.70
2018-11-27T23:32:59.425Z,14.17
2018-11-27T23:38:04.189Z,10.00
2018-11-27T23:43:07.989Z,11.30
2018-11-27T23:48:11.919Z,10.10
2018-11-27T23:53:15.851Z,9.33
2018-11-27T23:58:19.578Z,9.80
